PKWA TAF

83.7 °F / 28.7 °C
ESE at 13 MPH
79%
76.5°F / 24.7 °C
29.89" (1012 mb)
10 mile(s)
overcast
2021.06.14 2040 UTC

PKWA TAF

2021/06/14 18:30
TAF PKWA 141726Z 1418/1518 09011KT P6SM VCSH FEW018 FEW120